Home   Weather   Germany   Erkrath   Past weeks
Flag for Germany

Past Weather in Erkrath, North Rhine-Westphalia, Germany — Yesterday and Last 2 Weeks

Currently: 41 °F. Drizzle. Fog. (Weather station: Duesseldorf, Germany). See more current weather

Past Weather in Erkrath — Graph

°F

Erkrath Temperature Yesterday

Maximum temperature yesterday: 61 °F (at 2:20 pm)
Minimum temperature yesterday: 43 °F (at 11:20 pm)
Average temperature yesterday: 51 °F

High & Low Weather Summary for the Past Weeks

 TemperatureHumidityPressure
High68 °F (Feb 24, 2:20 pm)100% (Feb 27, 1:20 am)30.74 "Hg (Feb 27, 1:20 am)
Low30 °F (Mar 2, 2:50 am)37% (Mar 2, 4:20 pm)29.71 "Hg (Feb 18, 5:20 pm)
Average50 °F71%30.27 "Hg
* Reported Feb 17 12:20 pm — Mar 4 12:20 pm, Erkrath. Weather by CustomWeather, © 2021

Note: Actual official high and low records may vary slightly from our data, if they occured in-between our weather recording intervals... More about our weather records

Erkrath Weather History for the Previous 24 Hours

Scroll right to see more
 ConditionsComfort  
Time TempWeatherWind HumidityBarometerVisibility
12:20 pm
Thu, Mar 4
41 °FBroken clouds.5 mph93%30.12 "Hg4 mi
11:20 am41 °FLight rain. Fog.6 mph93%30.12 "Hg3 mi
10:50 am41 °FRain. Fog.8 mph100%30.12 "Hg2 mi
10:20 am41 °FRain. Fog.2 mph100%30.12 "Hg2 mi
9:50 am41 °FRain. Fog.5 mph100%30.12 "Hg2 mi
9:20 am41 °FHeavy rain. Fog.10 mph93%30.12 "Hg1 mi
8:50 am41 °FHeavy rain. Fog.10 mph93%30.12 "Hg1 mi
8:20 am41 °FHeavy rain. Fog.3 mph100%30.15 "Hg1 mi
7:50 am41 °FRain. Fog.3 mph93%30.15 "Hg1 mi
7:20 am41 °FLight rain. Fog.7 mph93%30.12 "Hg2 mi
6:50 am41 °FFog.7 mph93%30.15 "Hg2 mi
6:20 am41 °FLight rain. Fog.5 mph100%30.12 "Hg2 mi
5:50 am43 °FPassing clouds.3 mph93%30.15 "Hg3 mi
5:20 am43 °FFog.2 mph93%30.15 "Hg2 mi
4:50 am43 °FClear.2 mph93%30.15 "Hg3 mi
4:20 am43 °FClear.5 mph93%30.15 "Hg4 mi
3:50 am43 °FClear.3 mph93%30.18 "Hg4 mi
3:20 am43 °FClear.3 mph93%30.18 "Hg3 mi
2:50 am43 °FLight rain. Clear.2 mph93%30.21 "Hg4 mi
2:20 am41 °FLight rain. Clear.1 mph93%30.21 "Hg4 mi
1:50 am41 °FLight rain. Clear.1 mph93%30.21 "Hg5 mi
1:20 am41 °FClear.1 mph93%30.21 "Hg10 mi
12:50 am43 °FClear.2 mph93%30.21 "Hg10 mi
12:20 am41 °FClear.1 mph93%30.24 "Hg10 mi
11:50 pm
Wed, Mar 3
43 °FClear.1 mph87%30.24 "Hg10 mi
11:20 pm43 °FClear.No wind87%30.24 "Hg10 mi
10:50 pm45 °FClear.No wind87%30.24 "Hg10 mi
10:20 pm48 °FPassing clouds.3 mph82%30.24 "HgN/A
9:50 pm46 °FClear.5 mph87%30.24 "Hg10 mi
9:20 pm46 °FClear.6 mph82%30.24 "Hg10 mi
8:50 pm46 °FClear.No wind82%30.27 "Hg10 mi
8:20 pm48 °FClear.1 mph71%30.27 "Hg10 mi
7:50 pm50 °FClear.2 mph71%30.27 "Hg10 mi
7:20 pm50 °FClear.3 mph71%30.27 "Hg10 mi
6:50 pm52 °FClear.5 mph67%30.27 "Hg10 mi
6:20 pm55 °FClear.3 mph59%30.27 "Hg10 mi
5:50 pm59 °FSunny.3 mph51%30.27 "Hg10 mi
5:20 pm59 °FSunny.5 mph51%30.27 "Hg10 mi
4:50 pm61 °FSunny.5 mph45%30.27 "Hg10 mi
4:20 pm61 °FSunny.8 mph45%30.30 "Hg10 mi
3:50 pm61 °FSunny.8 mph45%30.30 "Hg10 mi
3:20 pm61 °FPassing clouds.7 mph48%30.30 "HgN/A
2:50 pm61 °FSunny.7 mph52%30.30 "Hg10 mi
2:20 pm61 °FSunny.7 mph52%30.33 "Hg10 mi
1:50 pm59 °FPassing clouds.6 mph55%30.33 "HgN/A
1:20 pm59 °FPassing clouds.6 mph51%30.33 "HgN/A
Weather by CustomWeather, © 2021

See weather overview